createdAt,value
2023-01-11T00:00:35.539Z,0.00
2023-01-11T00:01:35.556Z,0.00
2023-01-11T00:02:35.580Z,0.00
2023-01-11T00:03:35.497Z,0.00
2023-01-11T00:04:35.501Z,0.00
2023-01-11T00:05:35.507Z,0.00
2023-01-11T00:06:35.501Z,0.00
2023-01-11T00:07:35.460Z,0.00
2023-01-11T00:08:35.478Z,0.00
2023-01-11T00:09:35.455Z,0.00
2023-01-11T00:10:35.449Z,0.00
2023-01-11T00:11:35.411Z,0.00
2023-01-11T00:12:35.411Z,0.00
2023-01-11T00:13:35.387Z,0.00
2023-01-11T00:14:35.404Z,0.00
2023-01-11T00:15:35.411Z,0.00
2023-01-11T00:16:35.375Z,0.00
2023-01-11T00:17:35.348Z,0.00
2023-01-11T00:18:35.345Z,0.00
2023-01-11T00:19:35.340Z,0.00
2023-01-11T00:20:35.317Z,0.00
2023-01-11T00:21:35.331Z,0.00
2023-01-11T00:22:35.305Z,0.00
2023-01-11T00:23:35.308Z,0.00
2023-01-11T00:24:35.288Z,0.00
2023-01-11T00:25:35.265Z,0.00
2023-01-11T00:26:35.270Z,0.00
2023-01-11T00:27:35.263Z,0.00
2023-01-11T00:28:35.236Z,0.00
2023-01-11T00:29:35.219Z,0.00
2023-01-11T00:30:35.222Z,0.00
2023-01-11T00:31:35.242Z,0.00
2023-01-11T00:32:35.188Z,0.00
2023-01-11T00:33:35.160Z,0.00
2023-01-11T00:34:35.209Z,0.00
2023-01-11T00:35:35.154Z,0.00
2023-01-11T00:36:35.149Z,0.00
2023-01-11T00:37:35.120Z,0.00
2023-01-11T00:38:35.126Z,0.00
2023-01-11T00:39:35.104Z,0.00
2023-01-11T00:40:35.139Z,0.00
2023-01-11T00:41:35.098Z,0.00
2023-01-11T00:42:35.081Z,0.00
2023-01-11T00:43:35.069Z,0.00
2023-01-11T00:44:35.051Z,0.00
2023-01-11T00:45:35.075Z,0.00
2023-01-11T00:46:35.027Z,0.00
2023-01-11T00:47:35.029Z,0.00
2023-01-11T00:48:35.010Z,0.00
2023-01-11T00:49:34.994Z,0.00
2023-01-11T00:50:34.992Z,0.00
2023-01-11T00:51:34.983Z,0.00
2023-01-11T00:52:34.978Z,0.00
2023-01-11T00:53:34.957Z,0.00
2023-01-11T00:54:34.957Z,0.00
2023-01-11T00:55:34.975Z,0.00
2023-01-11T00:56:34.929Z,0.00
2023-01-11T00:57:34.902Z,0.00
2023-01-11T00:58:34.894Z,0.00
2023-01-11T00:59:34.910Z,0.00
2023-01-11T01:00:34.872Z,0.00
2023-01-11T01:01:34.908Z,0.00
2023-01-11T01:02:34.912Z,0.00
2023-01-11T01:03:34.897Z,0.00
2023-01-11T01:04:34.840Z,0.00
2023-01-11T01:05:34.810Z,0.00
2023-01-11T01:06:34.868Z,0.00
2023-01-11T01:07:34.819Z,0.00
2023-01-11T01:08:34.803Z,0.00
2023-01-11T01:09:34.808Z,0.00
2023-01-11T01:10:34.767Z,0.00
2023-01-11T01:11:34.747Z,0.00
2023-01-11T01:12:34.746Z,0.00
2023-01-11T01:13:34.728Z,0.00
2023-01-11T01:14:34.722Z,0.00
2023-01-11T01:15:34.771Z,0.00
2023-01-11T01:16:34.689Z,0.00
2023-01-11T01:17:34.696Z,0.00
2023-01-11T01:18:34.696Z,0.00
2023-01-11T01:19:34.653Z,0.00
2023-01-11T01:20:34.650Z,0.00
2023-01-11T01:21:34.635Z,0.00
2023-01-11T01:22:34.630Z,0.00
2023-01-11T01:23:34.649Z,0.00
2023-01-11T01:24:34.622Z,0.00
2023-01-11T01:25:34.585Z,0.00
2023-01-11T01:26:34.583Z,0.00
2023-01-11T01:27:34.579Z,0.00
2023-01-11T01:28:34.571Z,0.00
2023-01-11T01:29:34.572Z,0.00
2023-01-11T01:30:34.561Z,0.00
2023-01-11T01:31:34.631Z,0.00
2023-01-11T01:32:34.525Z,0.00
2023-01-11T01:33:34.504Z,0.00
2023-01-11T01:34:34.497Z,0.00
2023-01-11T01:35:34.473Z,0.00
2023-01-11T01:36:34.465Z,0.00
2023-01-11T01:37:34.487Z,0.00
2023-01-11T01:38:34.444Z,0.00
2023-01-11T01:39:34.444Z,0.00
2023-01-11T01:40:34.433Z,0.00
2023-01-11T01:41:34.422Z,0.00
2023-01-11T01:42:34.430Z,0.00
2023-01-11T01:43:34.397Z,0.00
2023-01-11T01:44:34.409Z,0.00
2023-01-11T01:45:34.366Z,0.00
2023-01-11T01:46:34.404Z,0.00
2023-01-11T01:47:34.349Z,0.00
2023-01-11T01:48:34.339Z,0.00
2023-01-11T01:49:34.326Z,0.00
2023-01-11T01:50:34.354Z,0.00
2023-01-11T01:51:34.332Z,0.00
2023-01-11T01:52:34.307Z,0.00
2023-01-11T01:53:34.275Z,0.00
2023-01-11T01:54:34.282Z,0.00
2023-01-11T01:55:34.259Z,0.00
2023-01-11T01:56:34.234Z,0.00
2023-01-11T01:57:34.270Z,0.00
2023-01-11T01:58:34.234Z,0.00
2023-01-11T01:59:34.214Z,0.00
2023-01-11T02:00:34.213Z,0.00
2023-01-11T02:01:34.214Z,0.00
2023-01-11T02:02:34.246Z,0.00
2023-01-11T02:03:34.202Z,0.00
2023-01-11T02:04:34.169Z,0.00
2023-01-11T02:05:34.154Z,0.00
2023-01-11T02:06:34.185Z,0.00
2023-01-11T02:07:34.144Z,0.00
2023-01-11T02:08:34.159Z,0.00
2023-01-11T02:09:34.113Z,0.00
2023-01-11T02:10:34.134Z,0.00
2023-01-11T02:11:34.089Z,0.00
2023-01-11T02:12:34.072Z,0.00
2023-01-11T02:13:34.052Z,0.00
2023-01-11T02:14:34.084Z,0.00
2023-01-11T02:15:34.043Z,0.00
2023-01-11T02:16:34.047Z,0.00
2023-01-11T02:17:34.043Z,0.00
2023-01-11T02:18:34.015Z,0.00
2023-01-11T02:19:34.013Z,0.00
2023-01-11T02:20:34.009Z,0.00
2023-01-11T02:21:33.980Z,0.00
2023-01-11T02:22:33.961Z,0.00
2023-01-11T02:23:33.968Z,0.00
2023-01-11T02:24:33.947Z,0.00
2023-01-11T02:25:33.970Z,0.00
2023-01-11T02:26:33.906Z,0.00
2023-01-11T02:27:33.902Z,0.00
2023-01-11T02:28:33.894Z,0.00
2023-01-11T02:29:33.878Z,0.00
2023-01-11T02:30:33.870Z,0.00
2023-01-11T02:31:33.933Z,0.00
2023-01-11T02:32:33.851Z,0.00
2023-01-11T02:33:33.993Z,0.00
2023-01-11T02:34:33.836Z,0.00
2023-01-11T02:35:33.806Z,0.00
2023-01-11T02:36:33.810Z,0.00
2023-01-11T02:37:33.829Z,0.00
2023-01-11T02:38:33.776Z,0.00
2023-01-11T02:39:33.770Z,0.00
2023-01-11T02:40:33.798Z,0.00
2023-01-11T02:41:33.738Z,0.00
2023-01-11T02:42:34.315Z,0.00
2023-01-11T02:43:33.736Z,0.00
2023-01-11T02:44:33.719Z,0.00
2023-01-11T02:45:33.705Z,0.00
2023-01-11T02:46:33.765Z,0.00
2023-01-11T02:47:33.680Z,0.00
2023-01-11T02:48:33.666Z,0.00
2023-01-11T02:49:33.723Z,0.00
2023-01-11T02:50:33.641Z,0.00
2023-01-11T02:51:33.630Z,0.00
2023-01-11T02:52:33.680Z,0.00
2023-01-11T02:53:33.655Z,0.00
2023-01-11T02:54:33.633Z,0.00
2023-01-11T02:55:33.603Z,0.00
2023-01-11T02:56:33.584Z,0.00
2023-01-11T02:57:33.566Z,0.00
2023-01-11T02:58:33.586Z,0.00
2023-01-11T02:59:33.550Z,0.00
2023-01-11T03:00:33.566Z,0.00
2023-01-11T03:01:33.599Z,0.00
2023-01-11T03:02:33.606Z,0.00
2023-01-11T03:03:33.499Z,0.00
2023-01-11T03:04:33.507Z,0.00
2023-01-11T03:05:33.483Z,0.00
2023-01-11T03:06:33.549Z,0.00
2023-01-11T03:07:33.456Z,0.00
2023-01-11T03:08:33.471Z,0.00
2023-01-11T03:09:33.444Z,0.00
2023-01-11T03:10:33.436Z,0.00
2023-01-11T03:11:33.431Z,0.00
2023-01-11T03:12:33.751Z,0.00
2023-01-11T03:13:33.398Z,0.00
2023-01-11T03:14:33.444Z,0.00
2023-01-11T03:15:33.455Z,0.00
2023-01-11T03:16:33.374Z,0.00
2023-01-11T03:17:33.352Z,0.00
2023-01-11T03:18:33.347Z,0.00
2023-01-11T03:19:33.335Z,0.00
2023-01-11T03:20:33.340Z,0.00
2023-01-11T03:21:33.324Z,0.00
2023-01-11T03:22:33.313Z,0.00
2023-01-11T03:23:33.291Z,0.00
2023-01-11T03:24:33.277Z,0.00
2023-01-11T03:25:34.241Z,0.00
2023-01-11T03:26:33.245Z,0.00
2023-01-11T03:27:33.259Z,0.00
2023-01-11T03:28:33.219Z,0.00
2023-01-11T03:29:33.247Z,0.00
2023-01-11T03:30:33.219Z,0.00
2023-01-11T03:31:33.217Z,0.00
2023-01-11T03:32:33.183Z,0.00
2023-01-11T03:33:33.171Z,0.00
2023-01-11T03:34:33.547Z,0.00
2023-01-11T03:35:33.149Z,0.00
2023-01-11T03:36:33.131Z,0.00
2023-01-11T03:37:34.615Z,0.00
2023-01-11T03:38:33.127Z,0.00
2023-01-11T03:39:33.103Z,0.00
2023-01-11T03:40:33.082Z,0.00
2023-01-11T03:41:33.083Z,0.00
2023-01-11T03:42:33.069Z,0.00
2023-01-11T03:43:33.264Z,0.00
2023-01-11T03:44:33.042Z,0.00
2023-01-11T03:45:33.044Z,0.00
2023-01-11T03:46:33.096Z,0.00
2023-01-11T03:47:33.039Z,0.00
2023-01-11T03:48:33.029Z,0.00
2023-01-11T03:49:34.548Z,0.00
2023-01-11T03:50:32.979Z,0.00
2023-01-11T03:51:32.974Z,0.00
2023-01-11T03:52:32.954Z,0.00
2023-01-11T03:53:32.970Z,0.00
2023-01-11T03:54:32.934Z,0.00
2023-01-11T03:55:32.929Z,0.00
2023-01-11T03:56:32.910Z,0.00
2023-01-11T03:57:32.909Z,0.00
2023-01-11T03:58:32.917Z,0.00
2023-01-11T03:59:32.887Z,0.00
2023-01-11T04:00:32.890Z,0.00
2023-01-11T04:01:32.866Z,0.00
2023-01-11T04:02:33.143Z,0.00
2023-01-11T04:03:32.830Z,0.00
2023-01-11T04:04:33.853Z,0.00
2023-01-11T04:05:32.812Z,0.00
2023-01-11T04:06:32.846Z,0.00
2023-01-11T04:07:32.798Z,0.00
2023-01-11T04:08:32.777Z,0.00
2023-01-11T04:09:32.778Z,0.00
2023-01-11T04:10:32.785Z,0.00
2023-01-11T04:11:32.748Z,0.00
2023-01-11T04:12:32.815Z,0.00
2023-01-11T04:13:32.714Z,0.00
2023-01-11T04:14:32.706Z,0.00
2023-01-11T04:15:32.750Z,0.00
2023-01-11T04:16:32.738Z,0.00
2023-01-11T04:17:32.683Z,0.00
2023-01-11T04:18:32.670Z,0.00
2023-01-11T04:19:32.650Z,0.00
2023-01-11T04:20:32.978Z,0.00
2023-01-11T04:21:32.663Z,0.00
2023-01-11T04:22:32.689Z,0.00
2023-01-11T04:23:32.628Z,0.00
2023-01-11T04:24:32.605Z,0.00
2023-01-11T04:25:32.672Z,0.00
2023-01-11T04:26:32.572Z,0.00
2023-01-11T04:27:32.583Z,0.00
2023-01-11T04:28:32.716Z,0.00
2023-01-11T04:29:32.560Z,0.00
2023-01-11T04:30:32.527Z,0.00
2023-01-11T04:31:32.565Z,0.00
2023-01-11T04:32:32.533Z,0.00
2023-01-11T04:33:32.645Z,0.00
2023-01-11T04:34:32.483Z,0.00
2023-01-11T04:35:32.598Z,0.00
2023-01-11T04:36:33.303Z,0.00
2023-01-11T04:37:32.465Z,0.00
2023-01-11T04:38:32.454Z,0.00
2023-01-11T04:39:32.461Z,0.00
2023-01-11T04:40:32.420Z,0.00
2023-01-11T04:41:32.405Z,0.00
2023-01-11T04:42:32.416Z,0.00
2023-01-11T04:43:33.556Z,0.00
2023-01-11T04:44:32.377Z,0.00
2023-01-11T04:45:32.908Z,0.00
2023-01-11T04:46:32.426Z,0.00
2023-01-11T04:47:32.399Z,0.00
2023-01-11T04:48:32.336Z,0.00
2023-01-11T04:49:32.326Z,0.00
2023-01-11T04:50:32.318Z,0.00
2023-01-11T04:51:32.477Z,0.00
2023-01-11T04:52:32.299Z,0.00
2023-01-11T04:53:32.303Z,0.00
2023-01-11T04:54:32.270Z,0.00
2023-01-11T04:55:32.273Z,0.00
2023-01-11T04:56:32.264Z,0.00
2023-01-11T04:57:32.233Z,0.00
2023-01-11T04:58:32.209Z,0.00
2023-01-11T04:59:32.533Z,0.00
2023-01-11T05:00:32.191Z,0.00
2023-01-11T05:01:32.234Z,0.00
2023-01-11T05:02:32.322Z,0.00
2023-01-11T05:03:32.389Z,0.00
2023-01-11T05:04:33.615Z,0.00
2023-01-11T05:05:32.155Z,0.00
2023-01-11T05:06:32.243Z,0.00
2023-01-11T05:07:32.122Z,0.00
2023-01-11T05:08:32.127Z,0.00
2023-01-11T05:09:32.152Z,0.00
2023-01-11T05:10:32.274Z,0.00
2023-01-11T05:11:32.073Z,0.00
2023-01-11T05:12:32.067Z,0.00
2023-01-11T05:13:32.103Z,0.00
2023-01-11T05:14:32.366Z,0.00
2023-01-11T05:15:33.012Z,0.00
2023-01-11T05:16:32.047Z,0.00
2023-01-11T05:17:32.144Z,0.00
2023-01-11T05:18:32.315Z,0.00
2023-01-11T05:19:32.065Z,0.00
2023-01-11T05:20:32.002Z,0.00
2023-01-11T05:21:32.014Z,0.00
2023-01-11T05:22:31.979Z,0.00
2023-01-11T05:23:31.944Z,0.00
2023-01-11T05:24:32.016Z,0.00
2023-01-11T05:25:32.187Z,0.00
2023-01-11T05:26:34.535Z,0.00
2023-01-11T05:27:31.933Z,0.00
2023-01-11T05:28:31.902Z,0.00
2023-01-11T05:29:31.876Z,0.00
2023-01-11T05:30:32.117Z,0.00
2023-01-11T05:31:31.924Z,0.00
2023-01-11T05:32:31.871Z,0.00
2023-01-11T05:33:31.874Z,0.00
2023-01-11T05:34:31.918Z,0.00
2023-01-11T05:35:32.583Z,0.00
2023-01-11T05:36:31.796Z,0.00
2023-01-11T05:37:31.828Z,0.00
2023-01-11T05:38:31.781Z,0.00
2023-01-11T05:39:31.802Z,0.00
2023-01-11T05:40:31.762Z,0.00
2023-01-11T05:41:31.761Z,0.00
2023-01-11T05:42:31.798Z,0.00
2023-01-11T05:43:31.733Z,0.00
2023-01-11T05:44:31.711Z,0.00
2023-01-11T05:45:31.781Z,0.00
2023-01-11T05:46:31.719Z,0.00
2023-01-11T05:47:31.733Z,0.00
2023-01-11T05:48:31.683Z,0.00
2023-01-11T05:49:31.692Z,0.00
2023-01-11T05:50:31.652Z,0.00
2023-01-11T05:51:31.712Z,0.00
2023-01-11T05:52:31.631Z,0.00
2023-01-11T05:53:31.644Z,0.00
2023-01-11T05:54:31.631Z,0.00
2023-01-11T05:55:31.642Z,0.00
2023-01-11T05:56:31.588Z,0.00
2023-01-11T05:57:31.562Z,0.00
2023-01-11T05:58:31.568Z,0.00
2023-01-11T05:59:32.259Z,0.00
2023-01-11T06:00:31.659Z,0.00
2023-01-11T06:01:31.561Z,0.00
2023-01-11T06:02:31.644Z,0.00
2023-01-11T06:03:31.511Z,0.00
2023-01-11T06:04:31.515Z,0.00
2023-01-11T06:05:31.481Z,0.00
2023-01-11T06:06:31.510Z,0.00
2023-01-11T06:07:32.438Z,0.00
2023-01-11T06:08:31.435Z,0.00
2023-01-11T06:09:31.432Z,0.00
2023-01-11T06:10:31.430Z,0.00
2023-01-11T06:11:31.440Z,0.00
2023-01-11T06:12:31.420Z,0.00
2023-01-11T06:13:31.401Z,0.00
2023-01-11T06:14:31.379Z,0.00
2023-01-11T06:15:32.324Z,0.00
2023-01-11T06:16:31.428Z,0.00
2023-01-11T06:17:31.342Z,0.00
2023-01-11T06:18:31.358Z,0.00
2023-01-11T06:19:31.327Z,0.00
2023-01-11T06:20:31.465Z,0.00
2023-01-11T06:21:31.301Z,0.00
2023-01-11T06:22:31.315Z,0.00
2023-01-11T06:23:31.327Z,0.00
2023-01-11T06:24:31.271Z,0.00
2023-01-11T06:25:31.260Z,0.00
2023-01-11T06:26:31.242Z,0.00
2023-01-11T06:27:31.246Z,0.00
2023-01-11T06:28:31.272Z,0.00
2023-01-11T06:29:31.262Z,0.00
2023-01-11T06:30:31.214Z,0.00
2023-01-11T06:31:31.236Z,0.00
2023-01-11T06:32:31.194Z,0.00
2023-01-11T06:33:31.208Z,0.00
2023-01-11T06:34:31.196Z,0.00
2023-01-11T06:35:31.204Z,0.00
2023-01-11T06:36:31.134Z,0.00
2023-01-11T06:37:31.112Z,0.00
2023-01-11T06:38:31.115Z,0.00
2023-01-11T06:39:31.172Z,0.00
2023-01-11T06:40:31.092Z,0.00
2023-01-11T06:41:31.074Z,0.00
2023-01-11T06:42:31.069Z,0.00
2023-01-11T06:43:31.064Z,0.00
2023-01-11T06:44:31.048Z,0.00
2023-01-11T06:45:31.077Z,0.00
2023-01-11T06:46:31.101Z,0.00
2023-01-11T06:47:31.038Z,0.00
2023-01-11T06:48:30.992Z,0.00
2023-01-11T06:49:31.009Z,0.00
2023-01-11T06:50:30.974Z,0.00
2023-01-11T06:51:30.980Z,0.00
2023-01-11T06:52:30.983Z,0.00
2023-01-11T06:53:30.976Z,0.00
2023-01-11T06:54:30.929Z,0.00
2023-01-11T06:55:30.949Z,0.00
2023-01-11T06:56:30.936Z,0.00
2023-01-11T06:57:30.961Z,0.00
2023-01-11T06:58:30.923Z,0.00
2023-01-11T06:59:30.881Z,0.00
2023-01-11T07:00:30.975Z,0.00
2023-01-11T07:01:30.967Z,0.00
2023-01-11T07:02:31.047Z,0.00
2023-01-11T07:03:30.834Z,0.00
2023-01-11T07:04:30.814Z,0.00
2023-01-11T07:05:30.894Z,0.00
2023-01-11T07:06:30.817Z,0.00
2023-01-11T07:07:30.804Z,0.00
2023-01-11T07:08:30.760Z,0.00
2023-01-11T07:09:30.781Z,0.00
2023-01-11T07:10:30.830Z,0.00
2023-01-11T07:11:30.741Z,0.00
2023-01-11T07:12:30.728Z,0.00
2023-01-11T07:13:30.748Z,0.00
2023-01-11T07:14:30.774Z,0.00
2023-01-11T07:15:30.712Z,0.00
2023-01-11T07:16:30.682Z,4.00
2023-01-11T07:17:30.677Z,4.00
2023-01-11T07:18:30.715Z,4.00
2023-01-11T07:19:30.659Z,4.00
2023-01-11T07:20:30.685Z,4.00
2023-01-11T07:21:30.633Z,4.00
2023-01-11T07:22:30.628Z,4.00
2023-01-11T07:23:30.616Z,4.00
2023-01-11T07:24:30.625Z,4.00
2023-01-11T07:25:30.587Z,4.00
2023-01-11T07:26:30.653Z,4.00
2023-01-11T07:27:30.572Z,8.00
2023-01-11T07:28:30.580Z,4.00
2023-01-11T07:29:30.545Z,8.00
2023-01-11T07:30:30.667Z,8.00
2023-01-11T07:31:30.640Z,12.00
2023-01-11T07:32:30.521Z,12.00
2023-01-11T07:33:30.506Z,8.00
2023-01-11T07:34:30.489Z,12.00
2023-01-11T07:35:30.502Z,12.00
2023-01-11T07:36:30.504Z,16.00
2023-01-11T07:37:30.470Z,16.00
2023-01-11T07:38:30.476Z,16.00
2023-01-11T07:39:42.817Z,16.00
2023-01-11T07:40:31.429Z,20.00
2023-01-11T07:41:30.443Z,20.00
2023-01-11T07:42:30.421Z,24.00
2023-01-11T07:43:30.382Z,32.00
2023-01-11T07:44:30.387Z,36.00
2023-01-11T07:45:44.686Z,36.00
2023-01-11T07:46:31.473Z,48.00
2023-01-11T07:47:30.367Z,44.00
2023-01-11T07:48:30.330Z,44.00
2023-01-11T07:49:30.324Z,40.00
2023-01-11T07:50:30.318Z,56.00
2023-01-11T07:51:30.307Z,52.00
2023-01-11T07:52:30.328Z,40.00
2023-01-11T07:53:30.263Z,60.00
2023-01-11T07:54:30.265Z,44.00
2023-01-11T07:55:30.258Z,52.00
2023-01-11T07:56:30.243Z,72.00
2023-01-11T07:57:30.232Z,72.00
2023-01-11T07:58:30.257Z,72.00
2023-01-11T07:59:30.204Z,60.00
2023-01-11T08:00:30.233Z,64.00
2023-01-11T08:01:30.268Z,92.00
2023-01-11T08:02:30.285Z,88.00
2023-01-11T08:03:30.329Z,92.00
2023-01-11T08:04:30.145Z,112.00
2023-01-11T08:05:30.170Z,84.00
2023-01-11T08:06:30.150Z,68.00
2023-01-11T08:07:30.133Z,56.00
2023-01-11T08:08:30.108Z,40.00
2023-01-11T08:09:30.086Z,48.00
2023-01-11T08:10:30.188Z,64.00
2023-01-11T08:11:33.860Z,68.00
2023-01-11T08:12:30.079Z,104.00
2023-01-11T08:13:30.048Z,104.00
2023-01-11T08:14:30.068Z,148.00
2023-01-11T08:15:30.149Z,124.00
2023-01-11T08:16:31.017Z,92.00
2023-01-11T08:17:30.001Z,96.00
2023-01-11T08:18:29.994Z,96.00
2023-01-11T08:19:29.994Z,84.00
2023-01-11T08:20:30.009Z,72.00
2023-01-11T08:21:30.005Z,100.00
2023-01-11T08:22:29.965Z,108.00
2023-01-11T08:23:29.950Z,128.00
2023-01-11T08:24:29.921Z,68.00
2023-01-11T08:25:29.935Z,76.00
2023-01-11T08:26:29.931Z,120.00
2023-01-11T08:27:29.891Z,120.00
2023-01-11T08:28:29.881Z,104.00
2023-01-11T08:29:29.863Z,108.00
2023-01-11T08:30:29.917Z,112.00
2023-01-11T08:31:29.892Z,124.00
2023-01-11T08:32:29.894Z,152.00
2023-01-11T08:33:29.868Z,192.00
2023-01-11T08:34:29.832Z,188.00
2023-01-11T08:35:29.795Z,168.00
2023-01-11T08:36:29.797Z,160.00
2023-01-11T08:37:29.806Z,144.00
2023-01-11T08:38:29.776Z,148.00
2023-01-11T08:39:29.976Z,148.00
2023-01-11T08:40:29.748Z,164.00
2023-01-11T08:41:29.738Z,136.00
2023-01-11T08:42:29.743Z,120.00
2023-01-11T08:43:29.723Z,84.00
2023-01-11T08:44:34.160Z,80.00
2023-01-11T08:45:29.721Z,76.00
2023-01-11T08:46:29.845Z,96.00
2023-01-11T08:47:29.670Z,84.00
2023-01-11T08:48:29.663Z,52.00
2023-01-11T08:49:29.649Z,56.00
2023-01-11T08:50:29.638Z,64.00
2023-01-11T08:51:29.696Z,100.00
2023-01-11T08:52:29.624Z,140.00
2023-01-11T08:53:29.624Z,280.00
2023-01-11T08:54:29.647Z,160.00
2023-01-11T08:55:29.590Z,252.00
2023-01-11T08:56:29.578Z,328.00
2023-01-11T08:57:29.568Z,336.00
2023-01-11T08:58:29.549Z,412.00
2023-01-11T08:59:29.537Z,276.00
2023-01-11T09:00:29.535Z,252.00
2023-01-11T09:01:29.539Z,280.00
2023-01-11T09:02:29.545Z,228.00
2023-01-11T09:03:29.496Z,240.00
2023-01-11T09:04:29.501Z,196.00
2023-01-11T09:05:29.500Z,228.00
2023-01-11T09:06:29.471Z,204.00
2023-01-11T09:07:29.489Z,184.00
2023-01-11T09:08:29.463Z,176.00
2023-01-11T09:09:29.432Z,252.00
2023-01-11T09:10:29.417Z,260.00
2023-01-11T09:11:29.428Z,276.00
2023-01-11T09:12:29.496Z,300.00
2023-01-11T09:13:29.449Z,336.00
2023-01-11T09:14:29.440Z,320.00
2023-01-11T09:15:30.309Z,396.00
2023-01-11T09:16:29.356Z,436.00
2023-01-11T09:17:29.371Z,496.00
2023-01-11T09:18:29.393Z,516.00
2023-01-11T09:19:29.326Z,496.00
2023-01-11T09:20:29.373Z,424.00
2023-01-11T09:21:29.296Z,336.00
2023-01-11T09:22:29.309Z,264.00
2023-01-11T09:23:29.325Z,288.00
2023-01-11T09:24:29.326Z,236.00
2023-01-11T09:25:29.271Z,252.00
2023-01-11T09:26:29.261Z,296.00
2023-01-11T09:27:29.258Z,332.00
2023-01-11T09:28:29.235Z,384.00
2023-01-11T09:29:29.288Z,320.00
2023-01-11T09:30:29.207Z,468.00
2023-01-11T09:31:29.258Z,524.00
2023-01-11T09:32:29.180Z,572.00
2023-01-11T09:33:29.169Z,480.00
2023-01-11T09:34:29.155Z,412.00
2023-01-11T09:35:29.140Z,420.00
2023-01-11T09:36:29.181Z,376.00
2023-01-11T09:37:29.121Z,528.00
2023-01-11T09:38:29.110Z,624.00
2023-01-11T09:39:29.097Z,468.00
2023-01-11T09:40:29.128Z,512.00
2023-01-11T09:41:29.077Z,580.00
2023-01-11T09:42:29.062Z,616.00
2023-01-11T09:43:29.053Z,612.00
2023-01-11T09:44:29.049Z,604.00
2023-01-11T09:45:29.102Z,592.00
2023-01-11T09:46:30.065Z,576.00
2023-01-11T09:47:29.010Z,560.00
2023-01-11T09:48:29.020Z,772.00
2023-01-11T09:49:28.992Z,712.00
2023-01-11T09:50:28.991Z,708.00
2023-01-11T09:51:29.007Z,688.00
2023-01-11T09:52:29.029Z,768.00
2023-01-11T09:53:28.933Z,736.00
2023-01-11T09:54:28.982Z,828.00
2023-01-11T09:55:28.947Z,868.00
2023-01-11T09:56:28.925Z,928.00
2023-01-11T09:57:29.141Z,892.00
2023-01-11T09:58:28.959Z,848.00
2023-01-11T09:59:28.893Z,836.00
2023-01-11T10:00:28.973Z,756.00
2023-01-11T10:01:28.928Z,736.00
2023-01-11T10:02:28.849Z,752.00
2023-01-11T10:03:28.834Z,828.00
2023-01-11T10:04:29.470Z,1036.00
2023-01-11T10:05:28.807Z,1096.00
2023-01-11T10:06:28.868Z,1116.00
2023-01-11T10:07:28.818Z,1056.00
2023-01-11T10:18:32.373Z,908.00
2023-01-11T10:18:32.540Z,1004.00
2023-01-11T10:18:33.076Z,1132.00
2023-01-11T10:18:34.381Z,1036.00
2023-01-11T10:19:39.547Z,1152.00
2023-01-11T10:20:29.733Z,1160.00
2023-01-11T10:21:28.631Z,1128.00
2023-01-11T10:22:28.634Z,944.00
2023-01-11T10:23:28.623Z,1092.00
2023-01-11T10:24:28.629Z,992.00
2023-01-11T10:25:28.584Z,780.00
2023-01-11T10:26:28.568Z,760.00
2023-01-11T10:27:28.595Z,700.00
2023-01-11T10:28:28.567Z,484.00
2023-01-11T10:29:28.571Z,600.00
2023-01-11T10:30:29.498Z,924.00
2023-01-11T10:31:28.596Z,1032.00
2023-01-11T10:32:28.503Z,1344.00
2023-01-11T10:33:28.494Z,1656.00
2023-01-11T10:34:28.597Z,1736.00
2023-01-11T10:35:28.526Z,1944.00
2023-01-11T10:36:29.409Z,1956.00
2023-01-11T10:37:28.467Z,1976.00
2023-01-11T10:38:28.455Z,1892.00
2023-01-11T10:39:28.454Z,1828.00
2023-01-11T10:40:28.423Z,1848.00
2023-01-11T10:41:28.464Z,1792.00
2023-01-11T10:42:28.409Z,1792.00
2023-01-11T10:43:28.413Z,1752.00
2023-01-11T10:44:28.405Z,1636.00
2023-01-11T10:45:28.397Z,1424.00
2023-01-11T10:46:28.357Z,1332.00
2023-01-11T10:47:28.385Z,1288.00
2023-01-11T10:48:28.331Z,1200.00
2023-01-11T10:49:28.357Z,1296.00
2023-01-11T10:50:28.307Z,1396.00
2023-01-11T10:51:28.301Z,1236.00
2023-01-11T10:52:28.293Z,1320.00
2023-01-11T10:53:28.308Z,1800.00
2023-01-11T10:54:28.275Z,1964.00
2023-01-11T10:55:28.264Z,2140.00
2023-01-11T10:56:28.241Z,1712.00
2023-01-11T10:57:28.282Z,1728.00
2023-01-11T10:58:28.225Z,1728.00
2023-01-11T10:59:28.206Z,1736.00
2023-01-11T11:00:28.215Z,1804.00
2023-01-11T11:01:28.351Z,2116.00
2023-01-11T11:02:28.183Z,1812.00
2023-01-11T11:03:28.217Z,3048.00
2023-01-11T11:04:28.177Z,2616.00
2023-01-11T11:05:28.153Z,1552.00
2023-01-11T11:06:28.141Z,2000.00
2023-01-11T11:07:28.113Z,2820.00
2023-01-11T11:08:28.105Z,2300.00
2023-01-11T11:09:28.168Z,2976.00
2023-01-11T11:10:28.103Z,2756.00
2023-01-11T11:11:28.087Z,2176.00
2023-01-11T11:12:28.093Z,2184.00
2023-01-11T11:13:28.051Z,2700.00
2023-01-11T11:14:28.057Z,2368.00
2023-01-11T11:15:28.063Z,1688.00
2023-01-11T11:16:28.102Z,2840.00
2023-01-11T11:17:28.029Z,1584.00
2023-01-11T11:18:28.003Z,1572.00
2023-01-11T11:19:27.983Z,2000.00
2023-01-11T11:20:28.017Z,2712.00
2023-01-11T11:21:27.980Z,1884.00
2023-01-11T11:22:27.965Z,2356.00
2023-01-11T11:23:27.941Z,1468.00
2023-01-11T11:24:27.937Z,2636.00
2023-01-11T11:25:28.874Z,2980.00
2023-01-11T11:26:27.923Z,1912.00
2023-01-11T11:27:27.938Z,2312.00
2023-01-11T11:28:27.886Z,2860.00
2023-01-11T11:29:27.885Z,2080.00
2023-01-11T11:30:27.864Z,1964.00
2023-01-11T11:31:27.912Z,2380.00
2023-01-11T11:32:28.706Z,2760.00
2023-01-11T11:33:27.827Z,2148.00
2023-01-11T11:34:27.823Z,2292.00
2023-01-11T11:35:27.806Z,2404.00
2023-01-11T11:36:27.839Z,1688.00
2023-01-11T11:37:27.781Z,1896.00
2023-01-11T11:38:27.778Z,2484.00
2023-01-11T11:39:27.778Z,2900.00
2023-01-11T11:40:27.773Z,2496.00
2023-01-11T11:41:27.749Z,3436.00
2023-01-11T11:42:27.762Z,1916.00
2023-01-11T11:43:27.771Z,1264.00
2023-01-11T11:44:27.745Z,1276.00
2023-01-11T11:45:28.484Z,1768.00
2023-01-11T11:46:27.767Z,1356.00
2023-01-11T11:47:27.675Z,1488.00
2023-01-11T11:48:27.841Z,1928.00
2023-01-11T11:49:28.495Z,1648.00
2023-01-11T11:50:43.708Z,2052.00
2023-01-11T11:51:28.640Z,1552.00
2023-01-11T11:52:27.616Z,2600.00
2023-01-11T11:53:27.666Z,2284.00
2023-01-11T11:54:27.605Z,2020.00
2023-01-11T11:55:27.611Z,2624.00
2023-01-11T11:56:27.575Z,2348.00
2023-01-11T11:57:28.508Z,2040.00
2023-01-11T11:58:28.208Z,1576.00
2023-01-11T11:59:27.563Z,2332.00
2023-01-11T12:00:27.550Z,2144.00
2023-01-11T12:01:27.521Z,2616.00
2023-01-11T12:02:27.596Z,3472.00
2023-01-11T12:03:28.454Z,2880.00
2023-01-11T12:04:27.922Z,3632.00
2023-01-11T12:05:27.493Z,3864.00
2023-01-11T12:06:27.484Z,3652.00
2023-01-11T12:07:27.505Z,3492.00
2023-01-11T12:08:27.441Z,3624.00
2023-01-11T12:09:27.477Z,2856.00
2023-01-11T12:10:27.442Z,2284.00
2023-01-11T12:11:27.701Z,1796.00
2023-01-11T12:12:29.491Z,1820.00
2023-01-11T12:13:27.425Z,2068.00
2023-01-11T12:14:27.496Z,2296.00
2023-01-11T12:15:27.358Z,2468.00
2023-01-11T12:16:28.400Z,2748.00
2023-01-11T12:17:27.390Z,2360.00
2023-01-11T12:18:27.360Z,2420.00
2023-01-11T12:19:27.325Z,2080.00
2023-01-11T12:20:27.302Z,1848.00
2023-01-11T12:21:27.358Z,2520.00
2023-01-11T12:22:27.289Z,2776.00
2023-01-11T12:23:27.308Z,2084.00
2023-01-11T12:24:28.253Z,1968.00
2023-01-11T12:25:27.251Z,2552.00
2023-01-11T12:26:27.246Z,2316.00
2023-01-11T12:27:27.353Z,1904.00
2023-01-11T12:28:27.210Z,1444.00
2023-01-11T12:29:27.218Z,1508.00
2023-01-11T12:30:27.374Z,1556.00
2023-01-11T12:31:32.423Z,1648.00
2023-01-11T12:32:27.217Z,2084.00
2023-01-11T12:33:27.626Z,3088.00
2023-01-11T12:34:28.119Z,1940.00
2023-01-11T12:35:27.154Z,1488.00
2023-01-11T12:36:27.157Z,1492.00
2023-01-11T12:37:27.156Z,1484.00
2023-01-11T12:38:27.115Z,1516.00
2023-01-11T12:39:27.096Z,1604.00
2023-01-11T12:40:27.351Z,1552.00
2023-01-11T12:41:27.094Z,1464.00
2023-01-11T12:42:27.096Z,1428.00
2023-01-11T12:43:27.057Z,1528.00
2023-01-11T12:44:27.038Z,2428.00
2023-01-11T12:45:28.497Z,3784.00
2023-01-11T12:46:27.146Z,4688.00
2023-01-11T12:47:27.280Z,5608.00
2023-01-11T12:48:27.569Z,5412.00
2023-01-11T12:49:27.143Z,3064.00
2023-01-11T12:50:27.117Z,3572.00
2023-01-11T12:51:26.981Z,6160.00
2023-01-11T12:52:29.111Z,5148.00
2023-01-11T12:53:26.990Z,3404.00
2023-01-11T12:54:26.933Z,2480.00
2023-01-11T12:55:26.948Z,2756.00
2023-01-11T12:56:26.918Z,3532.00
2023-01-11T12:57:26.912Z,3316.00
2023-01-11T12:58:26.887Z,2232.00
2023-01-11T12:59:26.987Z,1972.00
2023-01-11T13:00:26.905Z,2096.00